Terminal Aerodrome Forecast
Issued by NWS Upton, NY

Home | Current Version | Previous Version | Text Only | Print | Product List | Glossary On
Versions: 1 2 3 4 5 6 7 8 9 10 11 12 13 14 15 16 17 18 19 20 21 22 23 24 25 26 27 28 29 30 31 32 33 34
560
FTUS41 KOKX 262339
TAFISP
TAF
KISP 262339Z 2700/2724 30008KT P6SM FEW050 BKN080
     FM270300 32006KT P6SM FEW080
     FM271300 35008KT P6SM FEW040
     FM271600 VRB05KT P6SM FEW040
     FM271900 18007KT P6SM SCT040=

USA.gov is the U.S. government's official web portal to all federal, state and local government web resources and services.